sensor_id;sensor_type;location;lat;lon;timestamp;temperature;humidity
22161;DHT22;49035;48.812;11.762;2022-07-23T00:02:02;18.70;99.90
22161;DHT22;49035;48.812;11.762;2022-07-23T00:04:28;18.60;99.90
22161;DHT22;49035;48.812;11.762;2022-07-23T00:06:54;18.70;99.90
22161;DHT22;49035;48.812;11.762;2022-07-23T00:09:19;18.70;99.90
22161;DHT22;49035;48.812;11.762;2022-07-23T00:11:45;18.80;99.90
22161;DHT22;49035;48.812;11.762;2022-07-23T00:16:38;18.80;99.90
22161;DHT22;49035;48.812;11.762;2022-07-23T00:19:04;18.70;99.90
22161;DHT22;49035;48.812;11.762;2022-07-23T00:21:29;18.50;99.90
22161;DHT22;49035;48.812;11.762;2022-07-23T00:23:55;18.40;99.90
22161;DHT22;49035;48.812;11.762;2022-07-23T00:26:20;18.30;99.90
22161;DHT22;49035;48.812;11.762;2022-07-23T00:28:46;18.30;99.90
22161;DHT22;49035;48.812;11.762;2022-07-23T00:31:12;18.20;99.90
22161;DHT22;49035;48.812;11.762;2022-07-23T00:33:37;18.20;99.90
22161;DHT22;49035;48.812;11.762;2022-07-23T00:36:03;18.10;99.90
22161;DHT22;49035;48.812;11.762;2022-07-23T00:38:29;18.10;99.90
22161;DHT22;49035;48.812;11.762;2022-07-23T00:40:54;18.00;99.90
22161;DHT22;49035;48.812;11.762;2022-07-23T00:43:20;18.30;99.90
22161;DHT22;49035;48.812;11.762;2022-07-23T00:45:47;18.10;99.90
22161;DHT22;49035;48.812;11.762;2022-07-23T00:48:12;18.10;99.90
22161;DHT22;49035;48.812;11.762;2022-07-23T00:50:38;18.00;99.90
22161;DHT22;49035;48.812;11.762;2022-07-23T00:53:05;17.90;99.90
22161;DHT22;49035;48.812;11.762;2022-07-23T00:55:30;17.90;99.90
22161;DHT22;49035;48.812;11.762;2022-07-23T00:57:57;17.90;99.90
22161;DHT22;49035;48.812;11.762;2022-07-23T01:00:23;18.00;99.90
22161;DHT22;49035;48.812;11.762;2022-07-23T01:02:49;17.90;99.90
22161;DHT22;49035;48.812;11.762;2022-07-23T01:05:15;17.90;99.90
22161;DHT22;49035;48.812;11.762;2022-07-23T01:07:42;18.00;99.90
22161;DHT22;49035;48.812;11.762;2022-07-23T01:10:08;18.00;99.90
22161;DHT22;49035;48.812;11.762;2022-07-23T01:12:54;18.10;99.90
22161;DHT22;49035;48.812;11.762;2022-07-23T01:15:20;18.20;99.90
22161;DHT22;49035;48.812;11.762;2022-07-23T01:17:45;18.20;99.90
22161;DHT22;49035;48.812;11.762;2022-07-23T01:20:11;18.20;99.90
22161;DHT22;49035;48.812;11.762;2022-07-23T01:22:36;18.20;99.90
22161;DHT22;49035;48.812;11.762;2022-07-23T01:25:02;18.40;99.90
22161;DHT22;49035;48.812;11.762;2022-07-23T01:27:27;18.40;99.90
22161;DHT22;49035;48.812;11.762;2022-07-23T01:29:55;18.40;99.90
22161;DHT22;49035;48.812;11.762;2022-07-23T01:32:22;18.60;99.90
22161;DHT22;49035;48.812;11.762;2022-07-23T01:34:48;18.60;99.90
22161;DHT22;49035;48.812;11.762;2022-07-23T01:37:13;18.60;99.90
22161;DHT22;49035;48.812;11.762;2022-07-23T01:39:39;18.70;99.90
22161;DHT22;49035;48.812;11.762;2022-07-23T01:42:05;18.90;99.90
22161;DHT22;49035;48.812;11.762;2022-07-23T01:44:30;19.10;99.90
22161;DHT22;49035;48.812;11.762;2022-07-23T01:46:56;19.40;99.90
22161;DHT22;49035;48.812;11.762;2022-07-23T01:49:22;19.50;99.90
22161;DHT22;49035;48.812;11.762;2022-07-23T01:51:47;19.60;99.90
22161;DHT22;49035;48.812;11.762;2022-07-23T01:54:26;19.90;99.90
22161;DHT22;49035;48.812;11.762;2022-07-23T01:56:52;20.00;99.90
22161;DHT22;49035;48.812;11.762;2022-07-23T01:59:17;20.10;99.90
22161;DHT22;49035;48.812;11.762;2022-07-23T02:01:43;20.20;99.90
22161;DHT22;49035;48.812;11.762;2022-07-23T02:04:08;20.40;99.90
22161;DHT22;49035;48.812;11.762;2022-07-23T02:06:34;20.50;99.90
22161;DHT22;49035;48.812;11.762;2022-07-23T02:08:59;20.50;99.90
22161;DHT22;49035;48.812;11.762;2022-07-23T02:11:25;20.30;99.90
22161;DHT22;49035;48.812;11.762;2022-07-23T02:13:51;20.10;99.90
22161;DHT22;49035;48.812;11.762;2022-07-23T02:16:16;19.90;99.90
22161;DHT22;49035;48.812;11.762;2022-07-23T02:18:42;19.60;99.90
22161;DHT22;49035;48.812;11.762;2022-07-23T02:21:07;19.30;99.90
22161;DHT22;49035;48.812;11.762;2022-07-23T02:23:33;19.00;99.90
22161;DHT22;49035;48.812;11.762;2022-07-23T02:25:59;18.90;99.90
22161;DHT22;49035;48.812;11.762;2022-07-23T02:28:24;18.70;99.90
22161;DHT22;49035;48.812;11.762;2022-07-23T02:30:50;18.60;99.90
22161;DHT22;49035;48.812;11.762;2022-07-23T02:33:16;18.50;99.90
22161;DHT22;49035;48.812;11.762;2022-07-23T02:35:41;18.50;99.90
22161;DHT22;49035;48.812;11.762;2022-07-23T02:38:07;18.40;99.90
22161;DHT22;49035;48.812;11.762;2022-07-23T02:40:32;18.40;99.90
22161;DHT22;49035;48.812;11.762;2022-07-23T02:42:58;18.30;99.90
22161;DHT22;49035;48.812;11.762;2022-07-23T02:45:23;18.20;99.90
22161;DHT22;49035;48.812;11.762;2022-07-23T02:47:49;18.10;99.90
22161;DHT22;49035;48.812;11.762;2022-07-23T02:50:15;18.10;99.90
22161;DHT22;49035;48.812;11.762;2022-07-23T02:52:40;18.10;99.90
22161;DHT22;49035;48.812;11.762;2022-07-23T02:55:06;18.10;99.90
22161;DHT22;49035;48.812;11.762;2022-07-23T02:57:32;18.20;99.90
22161;DHT22;49035;48.812;11.762;2022-07-23T02:59:58;18.10;99.90
22161;DHT22;49035;48.812;11.762;2022-07-23T03:02:23;18.00;99.90
22161;DHT22;49035;48.812;11.762;2022-07-23T03:04:49;17.90;99.90
22161;DHT22;49035;48.812;11.762;2022-07-23T03:07:16;17.90;99.90
22161;DHT22;49035;48.812;11.762;2022-07-23T03:09:42;17.70;99.90
22161;DHT22;49035;48.812;11.762;2022-07-23T03:12:08;17.70;99.90
22161;DHT22;49035;48.812;11.762;2022-07-23T03:14:33;17.60;99.90
22161;DHT22;49035;48.812;11.762;2022-07-23T03:16:59;17.60;99.90
22161;DHT22;49035;48.812;11.762;2022-07-23T03:19:25;17.60;99.90
22161;DHT22;49035;48.812;11.762;2022-07-23T03:21:51;17.40;99.90
22161;DHT22;49035;48.812;11.762;2022-07-23T03:24:17;17.60;99.90
22161;DHT22;49035;48.812;11.762;2022-07-23T03:26:43;17.50;99.90
22161;DHT22;49035;48.812;11.762;2022-07-23T03:29:10;17.50;99.90
22161;DHT22;49035;48.812;11.762;2022-07-23T03:31:36;17.50;99.90
22161;DHT22;49035;48.812;11.762;2022-07-23T03:34:01;17.50;99.90
22161;DHT22;49035;48.812;11.762;2022-07-23T03:36:27;17.40;99.90
22161;DHT22;49035;48.812;11.762;2022-07-23T03:38:53;17.40;99.90
22161;DHT22;49035;48.812;11.762;2022-07-23T03:41:19;17.40;99.90
22161;DHT22;49035;48.812;11.762;2022-07-23T03:43:45;17.60;99.90
22161;DHT22;49035;48.812;11.762;2022-07-23T03:46:11;17.50;99.90
22161;DHT22;49035;48.812;11.762;2022-07-23T03:48:36;17.40;99.90
22161;DHT22;49035;48.812;11.762;2022-07-23T03:51:02;17.40;99.90
22161;DHT22;49035;48.812;11.762;2022-07-23T03:53:28;17.30;99.90
22161;DHT22;49035;48.812;11.762;2022-07-23T03:55:53;17.50;99.90
22161;DHT22;49035;48.812;11.762;2022-07-23T03:58:19;17.40;99.90
22161;DHT22;49035;48.812;11.762;2022-07-23T04:00:44;17.30;99.90
22161;DHT22;49035;48.812;11.762;2022-07-23T04:03:10;17.30;99.90
22161;DHT22;49035;48.812;11.762;2022-07-23T04:05:36;17.40;99.90
22161;DHT22;49035;48.812;11.762;2022-07-23T04:08:01;17.40;99.90
22161;DHT22;49035;48.812;11.762;2022-07-23T04:10:27;17.40;99.90
22161;DHT22;49035;48.812;11.762;2022-07-23T04:12:52;17.40;99.90
22161;DHT22;49035;48.812;11.762;2022-07-23T04:15:18;17.40;99.90
22161;DHT22;49035;48.812;11.762;2022-07-23T04:17:44;17.40;99.90
22161;DHT22;49035;48.812;11.762;2022-07-23T04:20:11;17.40;99.90
22161;DHT22;49035;48.812;11.762;2022-07-23T04:22:36;17.60;99.90
22161;DHT22;49035;48.812;11.762;2022-07-23T04:25:02;17.50;99.90
22161;DHT22;49035;48.812;11.762;2022-07-23T04:27:28;17.50;99.90
22161;DHT22;49035;48.812;11.762;2022-07-23T04:29:53;17.50;99.90
22161;DHT22;49035;48.812;11.762;2022-07-23T04:32:19;17.50;99.90
22161;DHT22;49035;48.812;11.762;2022-07-23T04:34:44;17.60;99.90
22161;DHT22;49035;48.812;11.762;2022-07-23T04:37:10;17.50;99.90
22161;DHT22;49035;48.812;11.762;2022-07-23T04:39:35;17.60;99.90
22161;DHT22;49035;48.812;11.762;2022-07-23T04:42:01;17.60;99.90
22161;DHT22;49035;48.812;11.762;2022-07-23T04:44:27;17.70;99.90
22161;DHT22;49035;48.812;11.762;2022-07-23T04:46:52;17.80;99.90
22161;DHT22;49035;48.812;11.762;2022-07-23T04:49:18;17.80;99.90
22161;DHT22;49035;48.812;11.762;2022-07-23T04:51:43;17.90;99.90
22161;DHT22;49035;48.812;11.762;2022-07-23T04:54:09;18.00;99.90
22161;DHT22;49035;48.812;11.762;2022-07-23T04:56:34;18.10;99.90
22161;DHT22;49035;48.812;11.762;2022-07-23T04:59:00;18.40;99.90
22161;DHT22;49035;48.812;11.762;2022-07-23T05:01:26;18.40;99.90
22161;DHT22;49035;48.812;11.762;2022-07-23T05:03:51;18.40;99.90
22161;DHT22;49035;48.812;11.762;2022-07-23T05:06:17;18.50;99.90
22161;DHT22;49035;48.812;11.762;2022-07-23T05:08:42;18.60;99.90
22161;DHT22;49035;48.812;11.762;2022-07-23T05:11:08;18.60;99.90
22161;DHT22;49035;48.812;11.762;2022-07-23T05:13:34;18.60;99.90
22161;DHT22;49035;48.812;11.762;2022-07-23T05:15:59;18.70;99.90
22161;DHT22;49035;48.812;11.762;2022-07-23T05:18:25;18.80;99.90
22161;DHT22;49035;48.812;11.762;2022-07-23T05:20:50;18.90;99.90
22161;DHT22;49035;48.812;11.762;2022-07-23T05:23:16;19.10;99.90
22161;DHT22;49035;48.812;11.762;2022-07-23T05:25:41;19.20;99.90
22161;DHT22;49035;48.812;11.762;2022-07-23T05:28:07;19.30;99.90
22161;DHT22;49035;48.812;11.762;2022-07-23T05:30:33;19.40;99.90
22161;DHT22;49035;48.812;11.762;2022-07-23T05:32:58;19.50;99.90
22161;DHT22;49035;48.812;11.762;2022-07-23T05:35:24;19.60;99.90
22161;DHT22;49035;48.812;11.762;2022-07-23T05:37:50;19.80;99.90
22161;DHT22;49035;48.812;11.762;2022-07-23T05:40:18;19.80;99.90
22161;DHT22;49035;48.812;11.762;2022-07-23T05:42:43;20.00;99.90
22161;DHT22;49035;48.812;11.762;2022-07-23T05:45:09;19.90;99.90
22161;DHT22;49035;48.812;11.762;2022-07-23T05:47:43;19.90;99.90
22161;DHT22;49035;48.812;11.762;2022-07-23T05:50:09;20.00;99.90
22161;DHT22;49035;48.812;11.762;2022-07-23T05:52:35;20.00;99.90
22161;DHT22;49035;48.812;11.762;2022-07-23T05:55:01;20.00;99.90
22161;DHT22;49035;48.812;11.762;2022-07-23T05:57:26;20.00;99.90
22161;DHT22;49035;48.812;11.762;2022-07-23T05:59:52;20.10;99.90
22161;DHT22;49035;48.812;11.762;2022-07-23T06:02:18;20.10;99.90
22161;DHT22;49035;48.812;11.762;2022-07-23T06:04:43;20.30;99.90
22161;DHT22;49035;48.812;11.762;2022-07-23T06:07:09;20.30;99.90
22161;DHT22;49035;48.812;11.762;2022-07-23T06:09:34;20.30;99.90
22161;DHT22;49035;48.812;11.762;2022-07-23T06:12:00;20.40;99.90
22161;DHT22;49035;48.812;11.762;2022-07-23T06:14:25;20.60;99.90
22161;DHT22;49035;48.812;11.762;2022-07-23T06:16:51;20.90;99.90
22161;DHT22;49035;48.812;11.762;2022-07-23T06:19:16;21.20;99.90
22161;DHT22;49035;48.812;11.762;2022-07-23T06:21:42;21.40;99.90
22161;DHT22;49035;48.812;11.762;2022-07-23T06:24:08;21.90;99.90
22161;DHT22;49035;48.812;11.762;2022-07-23T06:26:33;22.10;99.90
22161;DHT22;49035;48.812;11.762;2022-07-23T06:28:59;22.80;99.90
22161;DHT22;49035;48.812;11.762;2022-07-23T06:31:24;23.30;99.90
22161;DHT22;49035;48.812;11.762;2022-07-23T06:33:50;23.20;99.90
22161;DHT22;49035;48.812;11.762;2022-07-23T06:36:15;23.30;99.90
22161;DHT22;49035;48.812;11.762;2022-07-23T06:38:41;23.70;99.90
22161;DHT22;49035;48.812;11.762;2022-07-23T06:41:07;23.90;99.90
22161;DHT22;49035;48.812;11.762;2022-07-23T06:43:32;24.20;99.90
22161;DHT22;49035;48.812;11.762;2022-07-23T06:45:58;24.20;99.90
22161;DHT22;49035;48.812;11.762;2022-07-23T06:48:23;24.40;99.90
22161;DHT22;49035;48.812;11.762;2022-07-23T06:50:49;24.40;99.90
22161;DHT22;49035;48.812;11.762;2022-07-23T06:53:14;24.30;99.90
22161;DHT22;49035;48.812;11.762;2022-07-23T06:55:40;24.20;99.90
22161;DHT22;49035;48.812;11.762;2022-07-23T06:58:06;24.30;99.90
22161;DHT22;49035;48.812;11.762;2022-07-23T07:00:31;24.40;99.90
22161;DHT22;49035;48.812;11.762;2022-07-23T07:02:58;24.30;99.90
22161;DHT22;49035;48.812;11.762;2022-07-23T07:05:23;23.60;99.90
22161;DHT22;49035;48.812;11.762;2022-07-23T07:07:50;23.00;99.90
22161;DHT22;49035;48.812;11.762;2022-07-23T07:10:16;22.70;99.90
22161;DHT22;49035;48.812;11.762;2022-07-23T07:12:43;22.50;99.90
22161;DHT22;49035;48.812;11.762;2022-07-23T07:15:08;22.30;99.90
22161;DHT22;49035;48.812;11.762;2022-07-23T07:17:34;22.50;99.90
22161;DHT22;49035;48.812;11.762;2022-07-23T07:19:59;22.60;99.90
22161;DHT22;49035;48.812;11.762;2022-07-23T07:22:25;22.70;99.90
22161;DHT22;49035;48.812;11.762;2022-07-23T07:24:50;22.90;99.90
22161;DHT22;49035;48.812;11.762;2022-07-23T07:27:16;23.80;99.90
22161;DHT22;49035;48.812;11.762;2022-07-23T07:29:42;24.30;99.90
22161;DHT22;49035;48.812;11.762;2022-07-23T07:32:07;24.30;99.90
22161;DHT22;49035;48.812;11.762;2022-07-23T07:34:33;24.20;99.90
22161;DHT22;49035;48.812;11.762;2022-07-23T07:36:58;24.70;99.90
22161;DHT22;49035;48.812;11.762;2022-07-23T07:39:24;25.40;99.90
22161;DHT22;49035;48.812;11.762;2022-07-23T07:41:49;25.60;99.90
22161;DHT22;49035;48.812;11.762;2022-07-23T07:44:15;25.70;99.90
22161;DHT22;49035;48.812;11.762;2022-07-23T07:46:41;25.70;99.90
22161;DHT22;49035;48.812;11.762;2022-07-23T07:49:07;25.50;99.90
22161;DHT22;49035;48.812;11.762;2022-07-23T07:51:33;25.70;99.90
22161;DHT22;49035;48.812;11.762;2022-07-23T07:53:59;26.10;99.90
22161;DHT22;49035;48.812;11.762;2022-07-23T07:56:25;26.30;99.90
22161;DHT22;49035;48.812;11.762;2022-07-23T07:58:50;26.80;99.90
22161;DHT22;49035;48.812;11.762;2022-07-23T08:01:16;26.80;99.30
22161;DHT22;49035;48.812;11.762;2022-07-23T08:03:42;26.90;97.80
22161;DHT22;49035;48.812;11.762;2022-07-23T08:06:08;26.50;98.60
22161;DHT22;49035;48.812;11.762;2022-07-23T08:08:33;26.50;99.00
22161;DHT22;49035;48.812;11.762;2022-07-23T08:10:59;26.80;98.80
22161;DHT22;49035;48.812;11.762;2022-07-23T08:13:24;26.90;94.50
22161;DHT22;49035;48.812;11.762;2022-07-23T08:15:50;26.70;94.90
22161;DHT22;49035;48.812;11.762;2022-07-23T08:18:18;27.00;97.80
22161;DHT22;49035;48.812;11.762;2022-07-23T08:20:44;27.50;95.00
22161;DHT22;49035;48.812;11.762;2022-07-23T08:23:09;27.90;93.10
22161;DHT22;49035;48.812;11.762;2022-07-23T08:25:40;27.70;89.70
22161;DHT22;49035;48.812;11.762;2022-07-23T08:28:09;27.30;91.70
22161;DHT22;49035;48.812;11.762;2022-07-23T08:30:35;27.00;91.40
22161;DHT22;49035;48.812;11.762;2022-07-23T08:33:04;26.50;92.80
22161;DHT22;49035;48.812;11.762;2022-07-23T08:35:34;25.90;93.50
22161;DHT22;49035;48.812;11.762;2022-07-23T08:38:02;25.70;95.00
22161;DHT22;49035;48.812;11.762;2022-07-23T08:40:30;25.90;97.90
22161;DHT22;49035;48.812;11.762;2022-07-23T08:42:56;26.30;96.00
22161;DHT22;49035;48.812;11.762;2022-07-23T08:45:23;26.50;92.60
22161;DHT22;49035;48.812;11.762;2022-07-23T08:47:50;26.80;93.90
22161;DHT22;49035;48.812;11.762;2022-07-23T08:50:16;26.90;92.20
22161;DHT22;49035;48.812;11.762;2022-07-23T08:52:41;26.80;91.80
22161;DHT22;49035;48.812;11.762;2022-07-23T08:55:08;26.70;91.30
22161;DHT22;49035;48.812;11.762;2022-07-23T08:57:34;26.40;94.50
22161;DHT22;49035;48.812;11.762;2022-07-23T09:00:00;26.80;94.80
22161;DHT22;49035;48.812;11.762;2022-07-23T09:02:26;27.30;94.10
22161;DHT22;49035;48.812;11.762;2022-07-23T09:04:51;27.70;94.20
22161;DHT22;49035;48.812;11.762;2022-07-23T09:07:17;28.30;91.30
22161;DHT22;49035;48.812;11.762;2022-07-23T09:09:43;28.40;90.70
22161;DHT22;49035;48.812;11.762;2022-07-23T09:12:10;28.40;90.40
22161;DHT22;49035;48.812;11.762;2022-07-23T09:14:45;28.50;90.10
22161;DHT22;49035;48.812;11.762;2022-07-23T09:17:17;28.40;89.60
22161;DHT22;49035;48.812;11.762;2022-07-23T09:19:43;28.20;90.50
22161;DHT22;49035;48.812;11.762;2022-07-23T09:22:26;27.90;91.00
22161;DHT22;49035;48.812;11.762;2022-07-23T09:25:06;27.50;90.80
22161;DHT22;49035;48.812;11.762;2022-07-23T09:30:15;27.70;91.90
22161;DHT22;49035;48.812;11.762;2022-07-23T09:32:41;28.40;92.10
22161;DHT22;49035;48.812;11.762;2022-07-23T09:35:07;28.80;91.60
22161;DHT22;49035;48.812;11.762;2022-07-23T09:37:33;29.20;90.40
22161;DHT22;49035;48.812;11.762;2022-07-23T09:40:09;29.10;87.20
22161;DHT22;49035;48.812;11.762;2022-07-23T09:42:54;28.80;87.30
22161;DHT22;49035;48.812;11.762;2022-07-23T09:45:20;28.60;86.00
22161;DHT22;49035;48.812;11.762;2022-07-23T09:47:46;28.10;88.60
22161;DHT22;49035;48.812;11.762;2022-07-23T09:50:12;28.00;87.70
22161;DHT22;49035;48.812;11.762;2022-07-23T09:52:48;28.50;90.50
22161;DHT22;49035;48.812;11.762;2022-07-23T09:55:15;29.30;90.50
22161;DHT22;49035;48.812;11.762;2022-07-23T09:57:41;29.60;87.30
22161;DHT22;49035;48.812;11.762;2022-07-23T10:00:10;30.00;83.50
22161;DHT22;49035;48.812;11.762;2022-07-23T10:02:36;30.20;81.40
22161;DHT22;49035;48.812;11.762;2022-07-23T10:05:02;30.30;78.40
22161;DHT22;49035;48.812;11.762;2022-07-23T10:07:31;30.40;76.70
22161;DHT22;49035;48.812;11.762;2022-07-23T10:10:00;30.60;76.80
22161;DHT22;49035;48.812;11.762;2022-07-23T10:12:26;30.40;73.90
22161;DHT22;49035;48.812;11.762;2022-07-23T10:15:10;30.70;75.70
22161;DHT22;49035;48.812;11.762;2022-07-23T10:17:36;30.70;76.70
22161;DHT22;49035;48.812;11.762;2022-07-23T10:20:04;30.70;71.50
22161;DHT22;49035;48.812;11.762;2022-07-23T10:22:38;30.10;76.30
22161;DHT22;49035;48.812;11.762;2022-07-23T10:25:40;30.40;76.30
22161;DHT22;49035;48.812;11.762;2022-07-23T10:35:52;31.00;71.40
22161;DHT22;49035;48.812;11.762;2022-07-23T10:38:27;30.90;73.30
22161;DHT22;49035;48.812;11.762;2022-07-23T10:40:56;31.30;73.50
22161;DHT22;49035;48.812;11.762;2022-07-23T10:43:22;31.60;72.40
22161;DHT22;49035;48.812;11.762;2022-07-23T10:45:48;31.90;67.70
22161;DHT22;49035;48.812;11.762;2022-07-23T10:59:22;32.70;62.50
22161;DHT22;49035;48.812;11.762;2022-07-23T11:01:48;32.50;61.10
22161;DHT22;49035;48.812;11.762;2022-07-23T11:04:15;32.20;61.70
22161;DHT22;49035;48.812;11.762;2022-07-23T11:09:40;32.30;60.90
22161;DHT22;49035;48.812;11.762;2022-07-23T11:17:38;33.20;57.80
22161;DHT22;49035;48.812;11.762;2022-07-23T11:27:55;33.40;56.70
22161;DHT22;49035;48.812;11.762;2022-07-23T11:35:34;33.60;56.80
22161;DHT22;49035;48.812;11.762;2022-07-23T11:38:08;33.40;55.30
22161;DHT22;49035;48.812;11.762;2022-07-23T11:40:38;33.30;60.60
22161;DHT22;49035;48.812;11.762;2022-07-23T11:43:07;33.30;56.40
22161;DHT22;49035;48.812;11.762;2022-07-23T11:45:41;33.30;57.00
22161;DHT22;49035;48.812;11.762;2022-07-23T11:48:09;33.50;55.00
22161;DHT22;49035;48.812;11.762;2022-07-23T11:50:36;33.80;56.90
22161;DHT22;49035;48.812;11.762;2022-07-23T11:53:02;34.20;52.40
22161;DHT22;49035;48.812;11.762;2022-07-23T11:55:28;33.70;52.90
22161;DHT22;49035;48.812;11.762;2022-07-23T11:57:54;33.80;56.70
22161;DHT22;49035;48.812;11.762;2022-07-23T12:00:23;34.00;52.40
22161;DHT22;49035;48.812;11.762;2022-07-23T12:02:51;33.70;52.30
22161;DHT22;49035;48.812;11.762;2022-07-23T12:05:26;32.70;54.50
22161;DHT22;49035;48.812;11.762;2022-07-23T12:07:53;32.70;58.70
22161;DHT22;49035;48.812;11.762;2022-07-23T12:10:34;33.40;55.00
22161;DHT22;49035;48.812;11.762;2022-07-23T12:13:14;33.80;52.90
22161;DHT22;49035;48.812;11.762;2022-07-23T12:15:43;32.70;54.60
22161;DHT22;49035;48.812;11.762;2022-07-23T12:18:11;33.00;51.80
22161;DHT22;49035;48.812;11.762;2022-07-23T12:20:42;32.60;51.50
22161;DHT22;49035;48.812;11.762;2022-07-23T12:23:10;32.20;52.30
22161;DHT22;49035;48.812;11.762;2022-07-23T12:25:39;32.10;53.50
22161;DHT22;49035;48.812;11.762;2022-07-23T12:30:47;31.00;55.10
22161;DHT22;49035;48.812;11.762;2022-07-23T12:33:24;31.00;57.50
22161;DHT22;49035;48.812;11.762;2022-07-23T12:35:50;31.30;58.40
22161;DHT22;49035;48.812;11.762;2022-07-23T12:38:21;31.60;54.00
22161;DHT22;49035;48.812;11.762;2022-07-23T12:40:48;31.30;53.00
22161;DHT22;49035;48.812;11.762;2022-07-23T12:45:54;31.80;53.20
22161;DHT22;49035;48.812;11.762;2022-07-23T12:48:28;31.90;53.90
22161;DHT22;49035;48.812;11.762;2022-07-23T12:51:21;32.90;56.20
22161;DHT22;49035;48.812;11.762;2022-07-23T12:53:49;33.30;50.30
22161;DHT22;49035;48.812;11.762;2022-07-23T12:56:26;33.90;53.30
22161;DHT22;49035;48.812;11.762;2022-07-23T12:58:52;34.50;54.80
22161;DHT22;49035;48.812;11.762;2022-07-23T13:04:02;35.80;49.00
22161;DHT22;49035;48.812;11.762;2022-07-23T13:06:30;35.30;49.60
22161;DHT22;49035;48.812;11.762;2022-07-23T13:08:56;34.90;48.70
22161;DHT22;49035;48.812;11.762;2022-07-23T13:11:21;33.70;49.60
22161;DHT22;49035;48.812;11.762;2022-07-23T13:13:47;32.70;51.30
22161;DHT22;49035;48.812;11.762;2022-07-23T13:16:13;32.00;52.90
22161;DHT22;49035;48.812;11.762;2022-07-23T13:18:38;31.50;51.80
22161;DHT22;49035;48.812;11.762;2022-07-23T13:21:04;32.10;50.90
22161;DHT22;49035;48.812;11.762;2022-07-23T13:23:30;32.80;50.40
22161;DHT22;49035;48.812;11.762;2022-07-23T13:25:55;33.00;51.50
22161;DHT22;49035;48.812;11.762;2022-07-23T13:28:22;32.60;52.50
22161;DHT22;49035;48.812;11.762;2022-07-23T13:30:48;32.60;50.90
22161;DHT22;49035;48.812;11.762;2022-07-23T13:33:16;32.10;51.40
22161;DHT22;49035;48.812;11.762;2022-07-23T13:35:42;31.60;53.20
22161;DHT22;49035;48.812;11.762;2022-07-23T13:38:08;30.90;55.80
22161;DHT22;49035;48.812;11.762;2022-07-23T13:40:36;30.30;56.30
22161;DHT22;49035;48.812;11.762;2022-07-23T13:43:05;30.00;57.50
22161;DHT22;49035;48.812;11.762;2022-07-23T13:45:31;30.20;57.50
22161;DHT22;49035;48.812;11.762;2022-07-23T13:47:57;30.10;56.90
22161;DHT22;49035;48.812;11.762;2022-07-23T13:50:23;30.50;55.30
22161;DHT22;49035;48.812;11.762;2022-07-23T13:52:49;30.70;54.50
22161;DHT22;49035;48.812;11.762;2022-07-23T13:55:15;30.70;55.70
22161;DHT22;49035;48.812;11.762;2022-07-23T13:57:40;30.70;57.20
22161;DHT22;49035;48.812;11.762;2022-07-23T14:00:07;30.60;56.30
22161;DHT22;49035;48.812;11.762;2022-07-23T14:02:35;30.40;55.10
22161;DHT22;49035;48.812;11.762;2022-07-23T14:05:02;29.90;55.70
22161;DHT22;49035;48.812;11.762;2022-07-23T14:07:28;29.70;58.70
22161;DHT22;49035;48.812;11.762;2022-07-23T14:09:54;29.50;60.10
22161;DHT22;49035;48.812;11.762;2022-07-23T14:12:19;29.40;58.20
22161;DHT22;49035;48.812;11.762;2022-07-23T14:14:45;29.40;57.10
22161;DHT22;49035;48.812;11.762;2022-07-23T14:17:10;29.50;57.70
22161;DHT22;49035;48.812;11.762;2022-07-23T14:19:36;29.80;61.40
22161;DHT22;49035;48.812;11.762;2022-07-23T14:22:02;29.90;58.00
22161;DHT22;49035;48.812;11.762;2022-07-23T14:24:27;30.10;56.30
22161;DHT22;49035;48.812;11.762;2022-07-23T14:26:53;30.00;55.20
22161;DHT22;49035;48.812;11.762;2022-07-23T14:29:19;30.20;58.20
22161;DHT22;49035;48.812;11.762;2022-07-23T14:31:44;30.60;55.70
22161;DHT22;49035;48.812;11.762;2022-07-23T14:34:10;30.60;56.70
22161;DHT22;49035;48.812;11.762;2022-07-23T14:36:37;30.50;56.60
22161;DHT22;49035;48.812;11.762;2022-07-23T14:39:03;30.30;56.20
22161;DHT22;49035;48.812;11.762;2022-07-23T14:41:29;30.10;56.00
22161;DHT22;49035;48.812;11.762;2022-07-23T14:43:55;30.00;56.90
22161;DHT22;49035;48.812;11.762;2022-07-23T14:46:21;29.90;54.90
22161;DHT22;49035;48.812;11.762;2022-07-23T14:48:46;30.00;60.00
22161;DHT22;49035;48.812;11.762;2022-07-23T14:51:12;30.30;62.40
22161;DHT22;49035;48.812;11.762;2022-07-23T14:53:38;30.60;61.40
22161;DHT22;49035;48.812;11.762;2022-07-23T14:56:04;30.60;62.90
22161;DHT22;49035;48.812;11.762;2022-07-23T14:58:30;30.80;61.50
22161;DHT22;49035;48.812;11.762;2022-07-23T15:00:55;30.80;63.80
22161;DHT22;49035;48.812;11.762;2022-07-23T15:03:21;30.90;64.00
22161;DHT22;49035;48.812;11.762;2022-07-23T15:05:46;30.60;65.60
22161;DHT22;49035;48.812;11.762;2022-07-23T15:08:12;31.10;70.20
22161;DHT22;49035;48.812;11.762;2022-07-23T15:10:38;32.30;63.80
22161;DHT22;49035;48.812;11.762;2022-07-23T15:13:03;33.20;61.10
22161;DHT22;49035;48.812;11.762;2022-07-23T15:15:30;34.00;59.60
22161;DHT22;49035;48.812;11.762;2022-07-23T15:17:55;34.60;55.90
22161;DHT22;49035;48.812;11.762;2022-07-23T15:20:21;34.40;54.90
22161;DHT22;49035;48.812;11.762;2022-07-23T15:22:46;34.70;55.00
22161;DHT22;49035;48.812;11.762;2022-07-23T15:25:13;34.90;55.80
22161;DHT22;49035;48.812;11.762;2022-07-23T15:27:39;34.40;55.60
22161;DHT22;49035;48.812;11.762;2022-07-23T15:30:08;33.30;56.60
22161;DHT22;49035;48.812;11.762;2022-07-23T15:32:33;32.30;59.60
22161;DHT22;49035;48.812;11.762;2022-07-23T15:34:59;31.30;62.40
22161;DHT22;49035;48.812;11.762;2022-07-23T15:37:25;30.50;63.90
22161;DHT22;49035;48.812;11.762;2022-07-23T15:39:51;30.10;66.30
22161;DHT22;49035;48.812;11.762;2022-07-23T15:42:17;29.80;67.70
22161;DHT22;49035;48.812;11.762;2022-07-23T15:44:43;29.50;70.70
22161;DHT22;49035;48.812;11.762;2022-07-23T15:47:14;29.40;69.90
22161;DHT22;49035;48.812;11.762;2022-07-23T15:49:40;29.40;70.20
22161;DHT22;49035;48.812;11.762;2022-07-23T15:52:05;29.70;71.00
22161;DHT22;49035;48.812;11.762;2022-07-23T15:54:31;30.80;69.80
22161;DHT22;49035;48.812;11.762;2022-07-23T15:56:57;32.80;64.30
22161;DHT22;49035;48.812;11.762;2022-07-23T15:59:23;34.10;59.20
22161;DHT22;49035;48.812;11.762;2022-07-23T16:01:48;34.10;58.50
22161;DHT22;49035;48.812;11.762;2022-07-23T16:04:14;34.30;57.60
22161;DHT22;49035;48.812;11.762;2022-07-23T16:06:40;35.30;56.20